ADDS METAR Data INFO
IDs: Format: Raw Decoded Include TAF

Data at: 0213 UTC 17 Aug 2018

PASO 170153Z AUTO 00000KT 10SM CLR 13/08 A3001 RMK AO2 SLP164 T01330078 TSNO
PASO 170053Z AUTO VRB04KT 10SM SCT060 13/09 A3001 RMK AO2 SLP164 T01330089 TSNO
PASO 162353Z AUTO 03006KT 10SM OVC065 13/10 A3002 RMK AO2 SLP165 T01330100 10139 20111 51003 TSNO
PASO 162253Z AUTO 36003KT 10SM SCT010 OVC060 12/09 A3002 RMK AO2 SLP164 T01220089 TSNO
PASO 162212Z AUTO 01005KT 10SM FEW009 OVC060 12/09 A3002 RMK AO2 T01220089 TSNO
PASO 162153Z AUTO 02006KT 10SM OVC060 12/09 A3001 RMK AO2 SLP164 T01220094 TSNO
PASO 162053Z AUTO 02005KT 10SM OVC060 13/09 A3001 RMK AO2 SLP162 T01280089 53005 TSNO
PASO 161953Z AUTO 02004KT 10SM SCT060 11/08 A3001 RMK AO2 SLP161 T01110078 TSNO
PASO 161853Z AUTO 00000KT 10SM CLR 12/08 A3000 RMK AO2 SLP157 T01170083 TSNO
PASO 161753Z AUTO 00000KT 10SM CLR 11/08 A2999 RMK AO2 SLP157 60000 T01110083 10111 20067 50002 TSNO
PASO 161653Z AUTO 00000KT 10SM OVC060 09/07 A3000 RMK AO2 SLP157 T00940072 TSNO
PASO 161553Z AUTO 00000KT 10SM OVC065 08/06 A2999 RMK AO2 SLP156 T00780061 TSNO
PASO 161453Z AUTO 00000KT 8SM CLR 07/06 A2999 RMK AO2 SLP155 60000 T00720056 53003 TSNO
PASO 161353Z AUTO 00000KT 10SM BKN070 08/06 A2998 RMK AO2 SLP153 T00780061 TSNO
PASO 161253Z AUTO 00000KT 10SM SCT050 BKN065 09/07 A2998 RMK AO2 RAB08E20 SLP152 P0000 T00890072 TSNO
PASO 161153Z AUTO 13003KT 10SM OVC065 11/06 A2998 RMK AO2 SLP152 T01110061 10117 20094 53001 TSNO
PASO 161053Z AUTO 00000KT 10SM OVC055 10/08 A2998 RMK AO2 SLP151 T01000078 TSNO
PASO 160953Z AUTO 00000KT 10SM BKN065 09/07 A2998 RMK AO2 SLP152 T00940072 TSNO
PASO 160853Z AUTO 00000KT 10SM BKN065 10/07 A2998 RMK AO2 SLP151 T01000072 401720089 51004 TSNO
PASO 160753Z AUTO 00000KT 10SM FEW040 BKN048 OVC060 11/07 A2997 RMK AO2 SLP150 T01110072 TSNO
PASO 160653Z AUTO 18005KT 10SM OVC038 12/07 A2997 RMK AO2 SLP149 T01170072 TSNO
PASO 160553Z AUTO 17006KT 10SM OVC036 12/07 A2997 RMK AO2 SLP147 T01170072 10172 20111 53010 TSNO
PASO 160453Z AUTO 18006KT 10SM OVC044 12/08 A2995 RMK AO2 SLP143 T01170078 TSNO
PASO 160353Z AUTO 01006KT 10SM OVC040 12/07 A2994 RMK AO2 SLP139 T01170072 TSNO
PASO 160253Z AUTO 03006KT 10SM BKN044 OVC065 12/07 A2994 RMK AO2 SLP137 T01220072 55001 TSNO
PASO 160153Z AUTO 05006KT 10SM FEW047 13/06 A2993 RMK AO2 SLP135 T01330061 TSNO
PASO 160053Z AUTO 03005KT 10SM OVC045 15/07 A2993 RMK AO2 SLP136 T01500067 TSNO
PASO 152353Z AUTO VRB03KT 10SM FEW046 FEW055 17/07 A2994 RMK AO2 SLP138 T01670072 10172 20133 54000 TSNO
PASO 152253Z AUTO VRB04KT 10SM CLR 16/07 A2994 RMK AO2 SLP138 T01560067 TSNO
PASO 152153Z AUTO 21005KT 10SM CLR 16/07 A2994 RMK AO2 SLP138 T01560067 TSNO
PASO 152053Z AUTO VRB04KT 10SM CLR 15/06 A2994 RMK AO2 SLP139 T01500061 58001 TSNO
PASO 151953Z AUTO 00000KT 10SM CLR 16/06 A2994 RMK AO2 SLP140 T01560061 TSNO
PASO 151853Z AUTO 17005KT 10SM CLR 14/06 A2995 RMK AO2 SLP141 T01390061 TSNO
PASO 151753Z AUTO VRB03KT 10SM CLR 13/07 A2994 RMK AO2 SLP140 T01330067 10133 20089 51003 TSNO
PASO 151653Z AUTO VRB05KT 10SM FEW029 11/07 A2994 RMK AO2 SLP139 T01110067 TSNO
PASO 151553Z AUTO 00000KT 10SM FEW027 09/06 A2994 RMK AO2 SLP137 T00940061 TSNO
PASO 151453Z AUTO 19005KT 10SM FEW031 09/06 A2993 RMK AO2 SLP137 T00940056 53004 TSNO